createdAt,value
2023-04-04T00:01:32.780Z,75.40
2023-04-04T00:04:35.954Z,75.30
2023-04-04T00:07:40.205Z,75.60
2023-04-04T00:10:43.276Z,75.60
2023-04-04T00:13:46.343Z,76.20
2023-04-04T00:16:49.186Z,75.30
2023-04-04T00:19:52.051Z,75.70
2023-04-04T00:22:56.252Z,76.40
2023-04-04T00:25:59.109Z,75.90
2023-04-04T00:29:01.985Z,75.80
2023-04-04T00:32:04.973Z,75.60
2023-04-04T00:35:08.506Z,75.10
2023-04-04T00:38:12.816Z,75.20
2023-04-04T00:41:16.768Z,75.60
2023-04-04T00:44:19.940Z,75.30
2023-04-04T00:47:23.915Z,75.20
2023-04-04T00:50:27.052Z,75.80
2023-04-04T00:53:32.175Z,76.00
2023-04-04T00:56:39.712Z,75.60
2023-04-04T00:59:43.425Z,76.40
2023-04-04T01:02:46.413Z,76.30
2023-04-04T01:05:49.432Z,77.10
2023-04-04T01:08:54.600Z,77.60
2023-04-04T01:11:58.138Z,77.70
2023-04-04T01:15:01.160Z,77.40
2023-04-04T01:18:06.923Z,77.60
2023-04-04T01:21:12.904Z,77.60
2023-04-04T01:24:18.971Z,77.80
2023-04-04T01:27:23.416Z,77.60
2023-04-04T01:30:28.567Z,77.60
2023-04-04T01:33:37.572Z,78.00
2023-04-04T01:36:49.368Z,77.60
2023-04-04T01:39:57.340Z,79.00
2023-04-04T01:43:01.811Z,79.00
2023-04-04T01:46:05.368Z,78.40
2023-04-04T01:49:09.032Z,78.60
2023-04-04T01:52:13.807Z,78.90
2023-04-04T01:55:17.108Z,78.10
2023-04-04T01:58:21.322Z,78.20
2023-04-04T02:01:24.227Z,78.00
2023-04-04T02:04:27.214Z,78.30
2023-04-04T02:07:30.128Z,77.90
2023-04-04T02:10:33.012Z,77.90
2023-04-04T02:13:41.194Z,78.10
2023-04-04T02:16:44.188Z,78.40
2023-04-04T02:19:47.065Z,78.70
2023-04-04T02:22:53.997Z,78.70
2023-04-04T02:25:57.069Z,79.20
2023-04-04T02:29:01.341Z,78.80
2023-04-04T02:32:04.229Z,79.00
2023-04-04T02:35:08.315Z,79.20
2023-04-04T02:38:11.180Z,79.30
2023-04-04T02:41:14.045Z,79.40
2023-04-04T02:44:18.229Z,78.70
2023-04-04T02:47:21.054Z,79.20
2023-04-04T02:50:23.897Z,79.30
2023-04-04T02:53:27.742Z,79.40
2023-04-04T02:56:30.774Z,79.30
2023-04-04T02:59:34.975Z,78.90
2023-04-04T03:02:38.138Z,79.70
2023-04-04T03:05:41.222Z,78.90
2023-04-04T03:08:44.078Z,79.00
2023-04-04T03:11:47.113Z,79.10
2023-04-04T03:14:51.284Z,79.50
2023-04-04T03:17:54.377Z,79.10
2023-04-04T03:20:57.275Z,78.90
2023-04-04T03:24:00.561Z,79.00
2023-04-04T03:27:03.441Z,79.30
2023-04-04T03:30:10.067Z,79.40
2023-04-04T03:33:12.898Z,79.70
2023-04-04T03:36:16.676Z,79.70
2023-04-04T03:39:19.508Z,79.50
2023-04-04T03:42:22.516Z,79.70
2023-04-04T03:45:26.695Z,80.50
2023-04-04T03:48:29.819Z,80.10
2023-04-04T03:51:32.704Z,80.60
2023-04-04T03:54:35.593Z,80.10
2023-04-04T03:57:38.551Z,80.40
2023-04-04T04:00:42.776Z,80.40
2023-04-04T04:03:45.764Z,80.60
2023-04-04T04:06:49.276Z,80.60
2023-04-04T04:09:52.333Z,81.40
2023-04-04T04:12:55.142Z,80.30
2023-04-04T04:15:59.374Z,81.00
2023-04-04T04:19:02.428Z,81.00
2023-04-04T04:22:05.293Z,81.00
2023-04-04T04:25:08.762Z,81.00
2023-04-04T04:28:12.381Z,81.40
2023-04-04T04:31:16.658Z,81.40
2023-04-04T04:34:19.473Z,81.20
2023-04-04T04:37:22.976Z,80.70
2023-04-04T04:40:25.848Z,80.90
2023-04-04T04:43:28.696Z,81.30
2023-04-04T04:46:32.933Z,80.80
2023-04-04T04:49:35.844Z,80.70
2023-04-04T04:52:38.982Z,81.40
2023-04-04T04:55:43.100Z,80.90
2023-04-04T04:58:47.559Z,80.90
2023-04-04T05:01:51.773Z,80.30
2023-04-04T05:04:54.683Z,80.30
2023-04-04T05:07:57.569Z,80.60
2023-04-04T05:11:00.399Z,81.00
2023-04-04T05:14:03.208Z,81.00
2023-04-04T05:17:07.409Z,80.90
2023-04-04T05:20:11.132Z,80.80
2023-04-04T05:23:14.072Z,80.60
2023-04-04T05:26:16.942Z,80.80
2023-04-04T05:29:19.774Z,80.50
2023-04-04T05:32:24.165Z,80.90
2023-04-04T05:35:27.050Z,80.70
2023-04-04T05:38:30.995Z,80.90
2023-04-04T05:41:34.403Z,81.20
2023-04-04T05:44:37.260Z,80.80
2023-04-04T05:47:44.875Z,80.50
2023-04-04T05:50:48.129Z,80.50
2023-04-04T05:53:51.089Z,80.40
2023-04-04T05:56:53.896Z,81.50
2023-04-04T05:59:56.711Z,81.10
2023-04-04T06:03:00.963Z,81.30
2023-04-04T06:06:05.409Z,81.30
2023-04-04T06:09:08.919Z,81.00
2023-04-04T06:12:11.814Z,81.50
2023-04-04T06:15:14.715Z,81.50
2023-04-04T06:18:18.921Z,81.20
2023-04-04T06:21:21.745Z,81.00
2023-04-04T06:24:24.561Z,81.30
2023-04-04T06:27:28.054Z,80.60
2023-04-04T06:30:31.078Z,80.30
2023-04-04T06:33:35.347Z,80.30
2023-04-04T06:36:38.398Z,80.40
2023-04-04T06:39:41.330Z,80.50
2023-04-04T06:42:50.347Z,80.70
2023-04-04T06:45:53.275Z,80.30
2023-04-04T06:48:57.433Z,79.00
2023-04-04T06:52:00.997Z,79.50
2023-04-04T06:55:04.267Z,79.30
2023-04-04T06:58:07.162Z,78.60
2023-04-04T07:01:10.084Z,78.50
2023-04-04T07:04:14.313Z,79.00
2023-04-04T07:07:17.200Z,78.90
2023-04-04T07:10:20.088Z,80.60
2023-04-04T07:13:23.300Z,79.90
2023-04-04T07:16:26.705Z,79.50
2023-04-04T07:19:31.147Z,78.30
2023-04-04T07:22:34.028Z,77.50
2023-04-04T07:25:36.876Z,79.30
2023-04-04T07:28:39.724Z,77.80
2023-04-04T07:31:42.595Z,77.30
2023-04-04T07:34:47.242Z,76.70
2023-04-04T07:37:50.640Z,76.10
2023-04-04T07:40:53.490Z,76.00
2023-04-04T07:43:56.354Z,76.70
2023-04-04T07:47:09.408Z,75.20
2023-04-04T07:50:15.066Z,73.10
2023-04-04T07:53:17.915Z,73.80
2023-04-04T07:56:21.692Z,72.80
2023-04-04T07:59:24.635Z,73.20
2023-04-04T08:02:27.708Z,72.50
2023-04-04T08:05:31.965Z,73.60
2023-04-04T08:08:34.834Z,72.70
2023-04-04T08:11:37.746Z,70.50
2023-04-04T08:14:40.704Z,70.80
2023-04-04T08:17:44.196Z,71.70
2023-04-04T08:20:48.509Z,69.80
2023-04-04T08:23:51.358Z,68.90
2023-04-04T08:27:04.458Z,69.60
2023-04-04T08:30:09.529Z,67.60
2023-04-04T08:33:12.671Z,68.80
2023-04-04T08:36:17.208Z,68.70
2023-04-04T08:39:20.044Z,65.20
2023-04-04T08:42:24.762Z,66.20
2023-04-04T08:45:31.576Z,65.00
2023-04-04T08:48:35.097Z,66.20
2023-04-04T08:51:42.514Z,64.80
2023-04-04T08:54:48.441Z,65.20
2023-04-04T08:57:51.290Z,63.70
2023-04-04T09:00:54.832Z,61.60
2023-04-04T09:03:59.399Z,60.50
2023-04-04T09:07:05.718Z,59.60
2023-04-04T09:10:11.130Z,60.60
2023-04-04T09:13:16.526Z,60.40
2023-04-04T09:16:19.813Z,60.90
2023-04-04T09:19:25.047Z,60.50
2023-04-04T09:22:30.495Z,62.30
2023-04-04T09:25:33.402Z,60.90
2023-04-04T09:28:36.923Z,60.30
2023-04-04T09:31:40.307Z,61.10
2023-04-04T09:34:43.718Z,60.40
2023-04-04T09:37:48.250Z,61.10
2023-04-04T09:40:52.623Z,60.70
2023-04-04T09:43:58.698Z,61.30
2023-04-04T09:47:30.435Z,60.00
2023-04-04T09:50:34.612Z,62.30
2023-04-04T09:53:42.044Z,61.90
2023-04-04T09:56:45.895Z,61.60
2023-04-04T09:59:48.827Z,62.50
2023-04-04T10:02:53.343Z,60.90
2023-04-04T10:05:58.326Z,59.40
2023-04-04T10:09:04.034Z,59.50
2023-04-04T10:12:10.705Z,59.30
2023-04-04T10:15:13.625Z,59.30
2023-04-04T10:18:17.229Z,58.70
2023-04-04T10:21:20.643Z,59.40
2023-04-04T10:24:25.175Z,60.00
2023-04-04T10:27:28.121Z,59.20
2023-04-04T10:30:32.168Z,57.30
2023-04-04T10:33:43.992Z,57.40
2023-04-04T10:36:50.302Z,58.00
2023-04-04T10:40:02.547Z,59.20
2023-04-04T10:43:07.459Z,59.40
2023-04-04T10:46:14.861Z,57.60
2023-04-04T10:49:17.758Z,57.90
2023-04-04T10:52:22.702Z,56.70
2023-04-04T10:55:27.405Z,58.00
2023-04-04T10:58:30.517Z,58.50
2023-04-04T11:01:49.517Z,58.80
2023-04-04T11:04:52.599Z,56.80
2023-04-04T11:11:21.827Z,59.50
2023-04-04T11:14:30.501Z,57.40
2023-04-04T11:17:58.728Z,55.90
2023-04-04T11:21:03.705Z,56.70
2023-04-04T11:24:16.900Z,55.80
2023-04-04T11:27:22.223Z,56.00
2023-04-04T11:30:25.501Z,57.10
2023-04-04T11:33:29.287Z,56.80
2023-04-04T11:36:53.169Z,56.00
2023-04-04T11:39:59.047Z,56.80
2023-04-04T11:43:09.929Z,56.40
2023-04-04T11:46:18.584Z,56.80
2023-04-04T11:49:25.970Z,57.30
2023-04-04T11:52:35.078Z,58.20
2023-04-04T11:55:43.005Z,57.00
2023-04-04T11:58:56.019Z,56.30
2023-04-04T12:02:00.432Z,55.10
2023-04-04T12:05:05.221Z,54.40
2023-04-04T12:08:10.166Z,53.40
2023-04-04T12:11:18.730Z,52.20
2023-04-04T12:14:24.028Z,53.70
2023-04-04T12:17:30.850Z,54.20
2023-04-04T12:20:33.752Z,51.70
2023-04-04T12:23:36.874Z,51.50
2023-04-04T12:26:42.623Z,51.30
2023-04-04T12:29:47.616Z,51.60
2023-04-04T12:32:51.673Z,50.70
2023-04-04T12:35:55.889Z,49.20
2023-04-04T12:39:03.334Z,51.70
2023-04-04T12:42:07.519Z,51.70
2023-04-04T12:45:12.330Z,52.80
2023-04-04T12:48:17.938Z,50.90
2023-04-04T12:51:20.884Z,49.10
2023-04-04T12:54:35.065Z,50.90
2023-04-04T12:57:39.767Z,50.60
2023-04-04T13:00:44.376Z,49.90
2023-04-04T13:03:47.324Z,50.40
2023-04-04T13:06:50.302Z,50.80
2023-04-04T13:09:54.557Z,50.00
2023-04-04T13:12:59.957Z,48.70
2023-04-04T13:16:06.690Z,45.60
2023-04-04T13:19:09.563Z,47.80
2023-04-04T13:22:12.420Z,48.60
2023-04-04T13:25:15.726Z,47.50
2023-04-04T13:28:18.806Z,49.20
2023-04-04T13:31:23.384Z,48.20
2023-04-04T13:34:27.759Z,49.30
2023-04-04T13:37:30.763Z,48.90
2023-04-04T13:40:33.778Z,48.10
2023-04-04T13:43:36.663Z,48.60
2023-04-04T13:46:40.909Z,50.80
2023-04-04T13:49:43.825Z,50.70
2023-04-04T13:52:46.688Z,50.00
2023-04-04T13:58:55.522Z,49.10
2023-04-04T14:01:59.871Z,45.50
2023-04-04T14:05:02.758Z,48.50
2023-04-04T14:08:05.717Z,47.20
2023-04-04T14:11:08.592Z,48.00
2023-04-04T14:14:11.493Z,46.50
2023-04-04T14:17:15.698Z,46.70
2023-04-04T14:20:18.694Z,47.70
2023-04-04T14:23:22.057Z,47.30
2023-04-04T14:26:25.010Z,47.70
2023-04-04T14:29:28.208Z,49.20
2023-04-04T14:32:33.899Z,48.30
2023-04-04T14:35:36.877Z,49.70
2023-04-04T14:38:39.759Z,49.90
2023-04-04T14:41:42.597Z,48.40
2023-04-04T14:44:45.462Z,48.10
2023-04-04T14:47:49.768Z,48.10
2023-04-04T14:50:53.637Z,48.10
2023-04-04T14:53:56.530Z,47.10
2023-04-04T14:56:59.462Z,49.00
2023-04-04T15:00:02.344Z,47.60
2023-04-04T15:03:09.490Z,47.00
2023-04-04T15:06:12.386Z,45.90
2023-04-04T15:09:16.495Z,45.60
2023-04-04T15:12:19.404Z,45.20
2023-04-04T15:15:23.765Z,44.60
2023-04-04T15:18:28.303Z,45.70
2023-04-04T15:21:31.846Z,46.10
2023-04-04T15:24:34.747Z,44.60
2023-04-04T15:27:37.729Z,46.10
2023-04-04T15:30:41.027Z,48.00
2023-04-04T15:33:45.594Z,46.60
2023-04-04T15:36:50.738Z,46.70
2023-04-04T15:39:54.505Z,47.30
2023-04-04T15:42:57.934Z,46.90
2023-04-04T15:46:00.857Z,46.00
2023-04-04T15:49:06.009Z,46.20
2023-04-04T15:52:08.954Z,46.30
2023-04-04T15:55:14.417Z,45.70
2023-04-04T15:58:17.288Z,46.10
2023-04-04T16:01:20.559Z,47.40
2023-04-04T16:04:25.675Z,47.90
2023-04-04T16:07:28.547Z,47.30
2023-04-04T16:10:31.406Z,49.50
2023-04-04T16:13:34.250Z,46.80
2023-04-04T16:16:39.483Z,46.20
2023-04-04T16:19:43.678Z,46.80
2023-04-04T16:22:48.038Z,46.60
2023-04-04T16:25:50.908Z,47.50
2023-04-04T16:28:53.984Z,46.60
2023-04-04T16:31:56.863Z,46.20
2023-04-04T16:35:01.083Z,46.40
2023-04-04T16:38:04.090Z,47.00
2023-04-04T16:41:06.942Z,46.50
2023-04-04T16:44:09.766Z,46.30
2023-04-04T16:47:12.641Z,46.70
2023-04-04T16:50:17.411Z,46.60
2023-04-04T16:53:20.313Z,46.60
2023-04-04T16:56:23.936Z,46.70
2023-04-04T16:59:27.800Z,47.70
2023-04-04T17:02:30.796Z,47.10
2023-04-04T17:05:35.009Z,47.40
2023-04-04T17:08:37.856Z,47.30
2023-04-04T17:11:44.587Z,47.90
2023-04-04T17:14:47.533Z,48.00
2023-04-04T17:17:50.441Z,48.80
2023-04-04T17:20:54.794Z,48.70
2023-04-04T17:23:57.716Z,48.20
2023-04-04T17:27:02.633Z,47.80
2023-04-04T17:30:06.536Z,48.10
2023-04-04T17:33:10.068Z,48.50
2023-04-04T17:36:14.512Z,48.90
2023-04-04T17:39:17.682Z,47.90
2023-04-04T17:42:20.555Z,48.00
2023-04-04T17:45:24.224Z,48.30
2023-04-04T17:48:32.153Z,48.80
2023-04-04T17:51:36.369Z,49.30
2023-04-04T17:54:39.462Z,49.10
2023-04-04T17:57:44.902Z,49.00
2023-04-04T18:00:47.851Z,49.50
2023-04-04T18:03:50.793Z,48.70
2023-04-04T18:06:55.097Z,48.90
2023-04-04T18:09:57.965Z,49.20
2023-04-04T18:13:01.354Z,49.40
2023-04-04T18:16:07.236Z,49.70
2023-04-04T18:19:11.612Z,50.00
2023-04-04T18:22:16.046Z,50.10
2023-04-04T18:25:18.949Z,50.50
2023-04-04T18:28:21.792Z,51.00
2023-04-04T18:31:24.734Z,50.80
2023-04-04T18:34:27.706Z,51.30
2023-04-04T18:37:32.501Z,51.20
2023-04-04T18:40:35.608Z,51.60
2023-04-04T18:43:38.483Z,51.80
2023-04-04T18:46:41.449Z,52.40
2023-04-04T18:49:44.351Z,52.40
2023-04-04T18:52:48.701Z,52.50
2023-04-04T18:55:53.196Z,52.60
2023-04-04T18:58:56.406Z,52.70
2023-04-04T19:02:00.856Z,52.90
2023-04-04T19:05:05.034Z,53.60
2023-04-04T19:08:10.158Z,53.60
2023-04-04T19:11:14.038Z,54.00
2023-04-04T19:14:17.089Z,54.10
2023-04-04T19:17:19.968Z,54.60
2023-04-04T19:20:22.808Z,54.50
2023-04-04T19:23:27.723Z,55.00
2023-04-04T19:26:30.657Z,54.80
2023-04-04T19:29:36.242Z,54.90
2023-04-04T19:32:39.326Z,55.30
2023-04-04T19:35:54.470Z,55.30
2023-04-04T19:38:58.905Z,55.70
2023-04-04T19:42:02.563Z,55.60
2023-04-04T19:45:14.081Z,56.20
2023-04-04T19:48:45.998Z,56.30
2023-04-04T19:51:53.757Z,56.50
2023-04-04T19:54:58.034Z,57.20
2023-04-04T19:58:02.323Z,57.40
2023-04-04T20:01:06.530Z,57.80
2023-04-04T20:04:10.944Z,57.50
2023-04-04T20:07:14.787Z,58.10
2023-04-04T20:10:37.309Z,58.10
2023-04-04T20:13:41.156Z,58.70
2023-04-04T20:16:44.108Z,59.10
2023-04-04T20:19:48.341Z,59.20
2023-04-04T20:22:52.707Z,59.20
2023-04-04T20:26:07.152Z,59.20
2023-04-04T20:29:11.731Z,59.40
2023-04-04T20:32:14.641Z,59.50
2023-04-04T20:35:27.293Z,59.40
2023-04-04T20:38:30.412Z,59.70
2023-04-04T20:41:34.676Z,59.90
2023-04-04T20:44:37.585Z,59.90
2023-04-04T20:47:45.759Z,60.20
2023-04-04T20:50:48.737Z,60.60
2023-04-04T20:53:52.513Z,61.40
2023-04-04T20:56:57.482Z,61.70
2023-04-04T21:00:00.353Z,61.90
2023-04-04T21:03:09.396Z,61.70
2023-04-04T21:06:14.718Z,61.90
2023-04-04T21:09:17.893Z,61.70
2023-04-04T21:12:23.169Z,62.10
2023-04-04T21:15:29.589Z,62.30
2023-04-04T21:18:33.119Z,62.40
2023-04-04T21:21:37.078Z,62.40
2023-04-04T21:24:40.233Z,62.50
2023-04-04T21:27:44.482Z,63.00
2023-04-04T21:30:47.860Z,63.00
2023-04-04T21:33:53.573Z,63.00
2023-04-04T21:37:00.918Z,63.30
2023-04-04T21:40:03.812Z,63.30
2023-04-04T21:43:08.021Z,63.70
2023-04-04T21:46:11.706Z,63.10
2023-04-04T21:49:14.593Z,63.50
2023-04-04T21:52:17.693Z,63.80
2023-04-04T21:55:21.487Z,63.90
2023-04-04T21:58:26.194Z,63.70
2023-04-04T22:01:30.519Z,64.10
2023-04-04T22:04:33.586Z,64.10
2023-04-04T22:07:36.458Z,64.20
2023-04-04T22:10:45.332Z,64.20
2023-04-04T22:13:51.166Z,64.70
2023-04-04T22:16:58.821Z,65.40
2023-04-04T22:20:08.258Z,64.80
2023-04-04T22:23:12.337Z,64.80
2023-04-04T22:26:20.232Z,64.70
2023-04-04T22:29:24.543Z,64.60
2023-04-04T22:32:27.782Z,64.80
2023-04-04T22:35:30.827Z,64.80
2023-04-04T22:38:33.669Z,64.60
2023-04-04T22:41:36.510Z,64.70
2023-04-04T22:44:40.705Z,64.60
2023-04-04T22:47:47.257Z,64.80
2023-04-04T22:50:51.240Z,65.00
2023-04-04T22:53:57.929Z,64.30
2023-04-04T22:57:01.362Z,64.80
2023-04-04T23:00:10.569Z,64.10
2023-04-04T23:03:13.584Z,64.90
2023-04-04T23:06:16.648Z,64.80
2023-04-04T23:09:23.438Z,65.00
2023-04-04T23:12:27.097Z,65.30
2023-04-04T23:15:33.074Z,65.70
2023-04-04T23:18:35.957Z,66.20
2023-04-04T23:21:39.448Z,66.30
2023-04-04T23:24:44.632Z,66.30
2023-04-04T23:27:47.550Z,66.00
2023-04-04T23:30:52.582Z,66.10
2023-04-04T23:33:55.888Z,66.70
2023-04-04T23:36:58.745Z,66.50
2023-04-04T23:40:01.601Z,66.40
2023-04-04T23:43:04.458Z,66.10
2023-04-04T23:46:08.820Z,66.40
2023-04-04T23:49:12.987Z,66.80
2023-04-04T23:52:15.831Z,66.80
2023-04-04T23:55:19.077Z,66.70
2023-04-04T23:58:22.004Z,67.00
